M I D A S
Marine Information and Data Acquisition System
Tripno 1074 of the Zeeleeuw from 2006-04-21 07:07:59 to 2006-04-21 08:28:20
Back to CruiseResearch ActivitiesStationsMapUnderway DataData graphs

EquipmentUnitsComment
TimeDGPSUTC
LatitudeDGPSDM.mWGS84
LongitudeDGPSDM.mWGS84
TemperatureSBE03/SBE38deg celciusITS90
ConductivitySBE21S/mITS90
SalinitySBE21 Practical Salinity Units
ChlorophylAChelsea fluorimeterg/lCalibrated in Aceton
Missing or incorrect values are displayed as -999
Sea surface data collected by the RV Zeeleeuw from 2006-04-21 07:01:57 to 2006-04-21 10:24:19
Time Latitude Longitude Temperature Conductivity Salinity ChlorophylA
2006-04-21 07:03:03 51°13.608 2°56.058 -999 4.570785 32.732691 16.848768
2006-04-21 07:04:03 51°13.623 2°55.995 -999 4.570785 32.732691 16.848768
2006-04-21 07:05:03 51°13.64 2°55.931 -999 4.570785 32.732691 16.815059
2006-04-21 07:06:03 51°13.661 2°55.867 -999 4.570682 32.731859 16.815059
2006-04-21 07:07:02 51°13.688 2°55.794 -999 4.573484 32.753726 16.781349
2006-04-21 07:08:02 51°13.695 2°55.778 -999 4.571823 32.741009 16.74764
2006-04-21 07:09:03 51°13.696 2°55.756 -999 4.571512 32.736736 16.74764
2006-04-21 07:10:03 51°13.702 2°55.755 -999 4.569747 32.721413 16.71393
2006-04-21 07:11:01 51°13.751 2°55.716 -999 4.574107 32.756939 16.71393
2006-04-21 07:12:03 51°13.863 2°55.613 -999 4.574107 32.758717 16.680221
2006-04-21 07:13:02 51°13.987 2°55.518 -999 4.574107 32.757531 16.612802
2006-04-21 07:14:03 51°14.114 2°55.426 -999 4.574107 32.757531 16.646512
2006-04-21 07:15:02 51°14.227 2°55.311 -999 4.574107 32.757531 16.579093
2006-04-21 07:16:03 51°14.321 2°55.146 -999 4.574107 32.756939 16.579093
2006-04-21 07:17:01 51°14.397 2°54.953 -999 4.574107 32.756939 16.545383
2006-04-21 07:18:02 51°14.435 2°54.678 -999 4.574107 32.756346 16.579093
2006-04-21 07:19:03 51°14.415 2°54.392 -999 4.574107 32.756346 16.545383
2006-04-21 07:20:02 51°14.343 2°54.158 -999 4.574003 32.756699 16.477965
2006-04-21 07:21:02 51°14.278 2°53.997 -999 4.573899 32.755275 16.477965
2006-04-21 07:22:02 51°14.24 2°53.871 -999 4.574003 32.756699 16.444255
2006-04-21 07:23:03 51°14.213 2°53.757 -999 4.573899 32.755868 16.444255
2006-04-21 07:24:02 51°14.176 2°53.663 -999 4.573899 32.755868 16.410546
2006-04-21 07:25:01 51°14.137 2°53.573 -999 4.573899 32.755275 16.376836
2006-04-21 07:26:02 51°14.101 2°53.475 -999 4.573899 32.755868 16.376836
2006-04-21 07:27:03 51°14.072 2°53.37 -999 4.573899 32.755275 16.343127
2006-04-21 07:28:03 51°14.037 2°53.273 -999 4.573899 32.755868 16.309418
2006-04-21 07:29:02 51°13.995 2°53.188 -999 4.573899 32.755868 16.275708
2006-04-21 07:30:02 51°13.953 2°53.1 -999 4.573899 32.755868 16.309418
2006-04-21 07:31:02 51°13.916 2°53.004 -999 4.573899 32.755868 16.275708
2006-04-21 07:32:01 51°13.879 2°52.911 -999 4.573795 32.755036 16.275708
2006-04-21 07:33:01 51°13.85 2°52.808 -999 4.573795 32.755036 16.275708
2006-04-21 07:34:02 51°13.816 2°52.706 -999 4.573795 32.755628 16.241999
2006-04-21 07:35:03 51°13.773 2°52.615 -999 4.573691 32.754797 16.241999
2006-04-21 07:36:02 51°13.729 2°52.53 -999 4.573691 32.754204 16.241999
2006-04-21 07:37:02 51°13.688 2°52.438 -999 4.573588 32.752779 16.275708
2006-04-21 07:38:01 51°13.63 2°52.417 -999 4.573588 32.756336 16.17458
2006-04-21 07:39:02 51°13.611 2°52.518 -999 4.573691 32.754204 16.140871
2006-04-21 07:40:02 51°13.646 2°52.608 -999 4.573691 32.753019 16.17458
2006-04-21 07:41:02 51°13.69 2°52.7 -999 4.573691 32.753611 16.17458
2006-04-21 07:42:03 51°13.738 2°52.799 -999 4.573691 32.753611 16.140871
2006-04-21 07:43:03 51°13.786 2°52.903 -999 4.573691 32.753019 16.107161
2006-04-21 07:44:03 51°13.837 2°53.01 -999 4.573691 32.753019 16.073452
2006-04-21 07:45:01 51°13.884 2°53.117 -999 4.573795 32.753258 16.073452
2006-04-21 07:46:02 51°13.933 2°53.228 -999 4.573899 32.752905 16.073452
2006-04-21 07:47:01 51°13.983 2°53.334 -999 4.573899 32.752312 16.039742
2006-04-21 07:48:03 51°14.036 2°53.443 -999 4.574003 32.753144 16.039742
2006-04-21 07:49:03 51°14.085 2°53.55 -999 4.574106 32.75279 16.006033
2006-04-21 07:50:02 51°14.135 2°53.652 -999 4.57421 32.75303 15.972324
2006-04-21 07:51:03 51°14.183 2°53.755 -999 4.57421 32.752437 15.972324
2006-04-21 07:52:02 51°14.223 2°53.838 -999 4.574314 32.752676 15.938614
2006-04-21 07:53:02 51°14.261 2°53.907 -999 4.574418 32.752323 15.938614
2006-04-21 07:54:03 51°14.298 2°53.966 -999 4.574522 32.752562 15.904905
2006-04-21 07:55:02 51°14.337 2°53.999 -999 4.574625 32.752209 15.871195
2006-04-21 07:56:03 51°14.374 2°54.021 -999 4.574729 32.752448 15.837486
2006-04-21 07:57:02 51°14.406 2°54.035 -999 4.574833 32.752687 15.837486
2006-04-21 07:58:01 51°14.448 2°53.977 -999 4.574833 32.755057 15.770067
2006-04-21 07:59:02 51°14.43 2°53.888 -999 4.574937 32.75115 15.770067
2006-04-21 08:00:03 51°14.389 2°53.812 -999 4.57504 32.752574 15.736358
2006-04-21 08:01:02 51°14.342 2°53.74 -999 4.575144 32.752813 15.736358
2006-04-21 08:02:03 51°14.3 2°53.652 -999 4.575144 32.75222 15.702648
2006-04-21 08:03:02 51°14.272 2°53.553 -999 4.575248 32.75246 15.668939
2006-04-21 08:04:03 51°14.248 2°53.448 -999 4.575352 32.752107 15.63523
2006-04-21 08:05:02 51°14.212 2°53.36 -999 4.575455 32.751754 15.63523
2006-04-21 08:06:03 51°14.176 2°53.269 -999 4.575559 32.752585 15.63523
2006-04-21 08:07:03 51°14.13 2°53.246 -999 4.575663 32.754009 15.60152
2006-04-21 08:08:02 51°14.1 2°53.299 -999 4.575767 32.753063 15.60152
2006-04-21 08:09:01 51°14.11 2°53.379 -999 4.575767 32.751287 15.567811
2006-04-21 08:10:02 51°14.148 2°53.476 -999 4.575871 32.752118 15.534101
2006-04-21 08:11:03 51°14.202 2°53.614 -999 4.575871 32.75271 15.534101
2006-04-21 08:12:01 51°14.249 2°53.748 -999 4.576078 32.753781 15.534101
2006-04-21 08:13:02 51°14.287 2°53.866 -999 4.576078 32.753189 15.500392
2006-04-21 08:14:03 51°14.323 2°53.983 -999 4.576182 32.752836 15.466683
2006-04-21 08:15:03 51°14.364 2°54.118 -999 4.576286 32.753075 15.466683
2006-04-21 08:16:03 51°14.415 2°54.279 -999 4.576286 32.752483 15.399264
2006-04-21 08:17:03 51°14.456 2°54.428 -999 4.576389 32.752722 15.399264
2006-04-21 08:18:03 51°14.465 2°54.544 -999 4.576493 32.753553 15.399264
2006-04-21 08:19:02 51°14.46 2°54.652 -999 4.576493 32.752369 15.365554
2006-04-21 08:20:01 51°14.439 2°54.773 -999 4.576597 32.752016 15.399264
2006-04-21 08:21:03 51°14.404 2°54.908 -999 4.576701 32.752256 15.365554
2006-04-21 08:22:01 51°14.365 2°55.036 -999 4.576908 32.753326 15.298136
2006-04-21 08:23:03 51°14.327 2°55.144 -999 4.576908 32.752734 15.298136
2006-04-21 08:24:03 51°14.298 2°55.215 -999 4.577012 32.752973 15.298136
2006-04-21 08:25:03 51°14.271 2°55.271 -999 4.577116 32.75262 15.264426
2006-04-21 08:26:01 51°14.232 2°55.331 -999 4.57722 32.75286 15.230717
2006-04-21 08:27:03 51°14.149 2°55.394 -999 4.577323 32.752507 15.264426
2006-04-21 08:28:03 51°14.07 2°55.44 -999 4.577427 32.753338 15.230717
2006-04-21 08:29:01 51°14.016 2°55.455 -999 4.577531 32.753577 15.197007
2006-04-21 08:30:03 51°13.996 2°55.459 -999 4.577323 32.751323 15.163298
2006-04-21 08:31:03 51°13.995 2°55.459 -999 4.577427 32.75097 15.163298
2006-04-21 08:32:03 51°13.996 2°55.457 -999 4.577531 32.751801 15.163298
2006-04-21 08:33:03 51°13.997 2°55.457 -999 4.577635 32.751449 15.129589
2006-04-21 08:34:03 51°13.997 2°55.457 -999 4.577635 32.750857 15.129589
2006-04-21 08:35:03 51°13.997 2°55.456 -999 4.577739 32.751688 15.095879
2006-04-21 08:36:03 51°13.997 2°55.456 -999 4.577842 32.751927 15.095879
2006-04-21 08:37:03 51°13.998 2°55.456 -999 4.57805 32.751814 15.095879
2006-04-21 08:38:03 51°13.998 2°55.456 -999 4.578154 32.751461 15.06217
2006-04-21 08:39:03 51°13.998 2°55.456 -999 4.578257 32.752292 15.06217
2006-04-21 08:40:03 51°13.998 2°55.455 -999 4.578361 32.75194 15.02846
2006-04-21 08:41:03 51°13.998 2°55.456 -999 4.578465 32.752179 14.994751
2006-04-21 08:42:03 51°13.998 2°55.456 -999 4.578569 32.752418 14.994751
2006-04-21 08:43:03 51°13.998 2°55.456 -999 4.578672 32.752066 14.994751
2006-04-21 08:44:03 51°13.998 2°55.456 -999 4.578776 32.751713 14.961042
2006-04-21 08:45:03 51°13.998 2°55.456 -999 4.57888 32.751952 14.961042
2006-04-21 08:46:03 51°13.998 2°55.456 -999 4.578984 32.7516 14.961042
2006-04-21 08:47:03 51°13.998 2°55.457 -999 4.579088 32.751839 14.927332
2006-04-21 08:48:03 51°13.998 2°55.456 -999 4.579295 32.752318 14.927332
2006-04-21 08:49:03 51°13.998 2°55.456 -999 4.579399 32.752557 14.927332
2006-04-21 08:50:03 51°13.998 2°55.456 -999 4.579503 32.752205 14.893623
2006-04-21 08:51:03 51°13.999 2°55.456 -999 4.579606 32.752444 14.893623
2006-04-21 08:52:03 51°13.999 2°55.456 -999 4.57971 32.752683 14.859913
2006-04-21 08:53:02 51°13.998 2°55.456 -999 4.579814 32.752331 14.859913
2006-04-21 08:54:03 51°13.998 2°55.456 -999 4.579918 32.75257 14.859913
2006-04-21 08:55:03 51°13.998 2°55.456 -999 4.580022 32.752218 14.826204
2006-04-21 08:56:03 51°13.998 2°55.456 -999 4.580125 32.752457 14.826204
2006-04-21 08:57:03 51°13.998 2°55.456 -999 4.580229 32.752105 14.792494
2006-04-21 08:58:03 51°13.998 2°55.456 -999 4.580437 32.752583 14.792494
2006-04-21 08:59:03 51°13.997 2°55.456 -999 4.58054 32.752822 14.792494
2006-04-21 09:00:03 51°13.998 2°55.456 -999 4.580644 32.75247 14.758785
2006-04-21 09:01:03 51°13.998 2°55.456 -999 4.580748 32.752709 14.725076
2006-04-21 09:02:03 51°13.999 2°55.456 -999 4.580956 32.753188 14.725076
2006-04-21 09:03:03 51°13.998 2°55.456 -999 4.581059 32.752836 14.725076
2006-04-21 09:04:03 51°13.999 2°55.456 -999 4.581267 32.753314 14.691366
2006-04-21 09:05:03 51°13.998 2°55.456 -999 4.581371 32.753553 14.691366
2006-04-21 09:06:03 51°13.998 2°55.456 -999 4.581474 32.75261 14.691366
2006-04-21 09:07:02 51°13.998 2°55.457 -999 4.581682 32.753679 14.657657
2006-04-21 09:08:03 51°13.998 2°55.456 -999 4.581786 32.753327 14.657657
2006-04-21 09:09:03 51°13.998 2°55.456 -999 4.58189 32.753567 14.623947
2006-04-21 09:10:03 51°13.998 2°55.456 -999 4.582097 32.754045 14.623947
2006-04-21 09:11:03 51°13.998 2°55.456 -999 4.582201 32.753693 14.623947
2006-04-21 09:12:03 51°13.999 2°55.456 -999 4.582305 32.753932 14.590238
2006-04-21 09:13:03 51°13.999 2°55.456 -999 4.582408 32.75358 14.590238
2006-04-21 09:14:03 51°13.999 2°55.456 -999 4.582616 32.754059 14.556529
2006-04-21 09:15:03 51°13.998 2°55.456 -999 4.58272 32.753707 14.556529
2006-04-21 09:16:03 51°13.999 2°55.456 -999 4.581682 32.746586 14.556529
2006-04-21 09:17:03 51°13.998 2°55.457 -999 4.58272 32.754298 14.522819
2006-04-21 09:18:03 51°13.997 2°55.457 -999 4.583239 32.755494 14.522819
2006-04-21 09:19:03 51°13.998 2°55.457 -999 4.58355 32.755029 14.48911
2006-04-21 09:20:03 51°13.997 2°55.457 -999 4.583861 32.756929 14.48911
2006-04-21 09:21:03 51°13.998 2°55.457 -999 4.584069 32.756816 14.48911
2006-04-21 09:22:03 51°13.998 2°55.457 -999 4.584276 32.757294 14.4554
2006-04-21 09:23:03 51°13.998 2°55.457 -999 4.584484 32.757773 14.4554
2006-04-21 09:24:03 51°13.998 2°55.457 -999 4.584692 32.758251 14.4554
2006-04-21 09:25:03 51°13.998 2°55.456 -999 4.584899 32.758138 14.421691
2006-04-21 09:26:03 51°13.998 2°55.457 -999 4.585107 32.759207 14.421691
2006-04-21 09:27:03 51°13.998 2°55.457 -999 4.58521 32.758856 14.387982
2006-04-21 09:28:03 51°13.999 2°55.456 -999 4.585418 32.758743 14.387982
2006-04-21 09:29:03 51°13.999 2°55.457 -999 4.585626 32.759221 14.387982
2006-04-21 09:30:02 51°13.999 2°55.456 -999 4.585729 32.75887 14.354272
2006-04-21 09:31:03 51°13.999 2°55.457 -999 4.585937 32.759348 14.354272
2006-04-21 09:32:03 51°13.999 2°55.456 -999 4.586144 32.759826 14.354272
2006-04-21 09:33:03 51°13.999 2°55.456 -999 4.586248 32.758884 14.320563
2006-04-21 09:34:03 51°13.999 2°55.456 -999 4.586456 32.759362 14.320563
2006-04-21 09:35:03 51°13.998 2°55.456 -999 4.586663 32.75925 14.286853
2006-04-21 09:36:03 51°13.998 2°55.456 -999 4.586871 32.759728 14.286853
2006-04-21 09:37:03 51°13.998 2°55.456 -999 4.587078 32.760206 14.286853
2006-04-21 09:38:03 51°13.999 2°55.456 -999 4.587182 32.759264 14.253144
2006-04-21 09:39:03 51°13.999 2°55.456 -999 4.58739 32.759742 14.253144
2006-04-21 09:40:03 51°13.998 2°55.456 -999 4.587597 32.75963 14.253144
2006-04-21 09:41:03 51°13.998 2°55.457 -999 4.587805 32.760108 14.219435
2006-04-21 09:42:03 51°13.998 2°55.457 -999 4.588012 32.759996 14.219435
2006-04-21 09:43:03 51°13.998 2°55.457 -999 4.58822 32.760474 14.219435
2006-04-21 09:44:03 51°13.998 2°55.457 -999 4.588428 32.760362 14.185725
2006-04-21 09:45:03 51°13.997 2°55.457 -999 4.588635 32.76084 14.185725
2006-04-21 09:46:03 51°13.998 2°55.457 -999 4.588843 32.760728 14.185725
2006-04-21 09:47:03 51°13.998 2°55.457 -999 4.58905 32.761206 14.185725
2006-04-21 09:48:03 51°13.998 2°55.457 -999 4.589258 32.761094 14.152016
2006-04-21 09:49:03 51°13.998 2°55.457 -999 4.589465 32.760982 14.152016
2006-04-21 09:50:03 51°13.998 2°55.457 -999 4.589673 32.76146 14.118306
2006-04-21 09:51:03 51°13.998 2°55.457 -999 4.58988 32.761348 14.118306
2006-04-21 09:52:03 51°13.998 2°55.458 -999 4.590088 32.761827 14.118306
2006-04-21 09:53:03 51°13.998 2°55.457 -999 4.590296 32.761715 14.084597
2006-04-21 09:54:03 51°13.998 2°55.457 -999 4.590399 32.761364 14.084597
2006-04-21 09:55:03 51°13.998 2°55.457 -999 4.590711 32.762081 14.084597
2006-04-21 09:56:03 51°13.998 2°55.457 -999 4.590918 32.761969 14.050888
2006-04-21 09:57:03 51°13.998 2°55.457 -999 4.591126 32.761857 14.050888
2006-04-21 09:58:03 51°13.998 2°55.457 -999 4.591333 32.762335 14.050888
2006-04-21 09:59:03 51°13.998 2°55.456 -999 4.591541 32.762224 14.017178
2006-04-21 10:00:03 51°13.998 2°55.456 -999 4.591748 32.762702 14.017178
2006-04-21 10:01:03 51°13.998 2°55.456 -999 4.59206 32.762829 14.017178
2006-04-21 10:02:03 51°13.998 2°55.455 -999 4.592267 32.762717 13.983469
2006-04-21 10:03:03 51°13.998 2°55.455 -999 4.592579 32.764024 13.983469
2006-04-21 10:04:03 51°13.998 2°55.455 -999 4.592786 32.763323 13.983469
2006-04-21 10:05:03 51°13.998 2°55.455 -999 4.592994 32.763801 13.949759
2006-04-21 10:06:03 51°13.998 2°55.455 -999 4.593305 32.763929 13.949759
2006-04-21 10:07:03 51°13.998 2°55.455 -999 4.593513 32.763817 13.949759
2006-04-21 10:08:03 51°13.998 2°55.456 -999 4.593824 32.764534 13.949759
2006-04-21 10:09:03 51°13.998 2°55.456 -999 4.594032 32.764423 13.91605
2006-04-21 10:10:03 51°13.998 2°55.456 -999 4.594239 32.764311 13.91605
2006-04-21 10:11:03 51°13.997 2°55.456 -999 4.59455 32.765028 13.91605
2006-04-21 10:12:03 51°13.997 2°55.458 -999 4.594758 32.764917 13.91605
2006-04-21 10:13:03 51°14.004 2°55.461 -999 4.594966 32.765395 13.91605
2006-04-21 10:14:03 51°14.024 2°55.463 -999 4.595173 32.764105 13.882341
2006-04-21 10:15:03 51°13.977 2°55.499 -999 4.595484 32.764822 13.882341
2006-04-21 10:16:03 51°13.903 2°55.56 -999 4.595692 32.76589 13.882341
2006-04-21 10:17:03 51°13.819 2°55.631 -999 4.596003 32.766607 13.848631
2006-04-21 10:18:03 51°13.743 2°55.726 -999 4.596211 32.765906 13.814922
2006-04-21 10:19:03 51°13.682 2°55.84 -999 4.596522 32.766623 13.814922
2006-04-21 10:20:03 51°13.643 2°55.933 -999 4.59673 32.766512 13.814922
2006-04-21 10:21:03 51°13.62 2°56.007 -999 4.597041 32.767229 13.814922
2006-04-21 10:22:03 51°13.611 2°56.062 -999 4.597249 32.76594 13.781212
2006-04-21 10:23:02 51°13.606 2°56.087 -999 4.59756 32.766657 13.781212
2006-04-21 10:24:02 51°13.602 2°56.095 -999 4.597768 32.766546 13.781212